Time;durP1;ratioP1;P1;durP2;ratioP2;P2;SDS_P1;SDS_P2;PMS_P1;PMS_P2;Temp;Humidity;BMP_temperature;BMP_pressure;BME280_temperature;BME280_humidity;BME280_pressure;Samples;Min_cycle;Max_cycle;Signal;HPM_P1;HPM_P2
2023/02/14 00:02:04;;;;;;;10.95;6.70;;;;;;;;;;5023368;28;20377;-78
2023/02/14 00:04:30;;;;;;;11.57;6.97;;;;;;;;;;5026310;28;20025;-77
2023/02/14 00:06:55;;;;;;;11.85;7.05;;;;;;;;;;5022544;28;20543;-77
2023/02/14 00:09:21;;;;;;;11.50;6.82;;;;;;;;;;5032264;28;20036;-77
2023/02/14 00:11:46;;;;;;;12.50;7.15;;;;;;;;;;5022138;28;20108;-77
2023/02/14 00:16:56;;;;;;;10.55;6.68;;;;;;;;;;5020259;28;20036;-77
2023/02/14 00:19:22;;;;;;;11.88;6.90;;;;;;;;;;5025183;28;20029;-77
2023/02/14 00:21:48;;;;;;;11.10;7.20;;;;;;;;;;5021907;28;20029;-77
2023/02/14 00:24:17;;;;;;;11.55;7.13;;;;;;;;;;5020474;28;20080;-77
2023/02/14 00:26:42;;;;;;;11.43;7.40;;;;;;;;;;5021100;28;20040;-77
2023/02/14 00:29:19;;;;;;;12.65;7.40;;;;;;;;;;5025036;28;20634;-77
2023/02/14 00:31:44;;;;;;;11.50;7.30;;;;;;;;;;5024386;28;20482;-77
2023/02/14 00:34:14;;;;;;;14.32;7.57;;;;;;;;;;5022103;28;20030;-77
2023/02/14 00:36:39;;;;;;;14.60;7.60;;;;;;;;;;5030573;28;20037;-77
2023/02/14 00:39:07;;;;;;;11.27;6.82;;;;;;;;;;5022469;28;20094;-77
2023/02/14 00:41:33;;;;;;;13.45;7.20;;;;;;;;;;5025522;28;20509;-77
2023/02/14 00:43:59;;;;;;;12.57;6.75;;;;;;;;;;5030008;28;20068;-77
2023/02/14 00:46:24;;;;;;;14.25;7.85;;;;;;;;;;5030015;28;20032;-77
2023/02/14 00:48:50;;;;;;;11.98;7.30;;;;;;;;;;5030483;28;20048;-77
2023/02/14 00:51:17;;;;;;;12.35;6.85;;;;;;;;;;5035524;28;20029;-77
2023/02/14 00:53:43;;;;;;;12.63;7.30;;;;;;;;;;5029187;28;20079;-77
2023/02/14 00:56:09;;;;;;;12.27;7.55;;;;;;;;;;5034080;28;20119;-77
2023/02/14 00:58:34;;;;;;;11.93;6.38;;;;;;;;;;5027246;28;20112;-77
2023/02/14 01:01:00;;;;;;;10.40;6.70;;;;;;;;;;5027473;28;20064;-77
2023/02/14 01:03:25;;;;;;;11.95;7.13;;;;;;;;;;5026107;28;20056;-77
2023/02/14 01:05:51;;;;;;;10.88;6.75;;;;;;;;;;5027769;28;20470;-77
2023/02/14 01:08:17;;;;;;;11.57;6.80;;;;;;;;;;5025928;28;20033;-78
2023/02/14 01:10:42;;;;;;;11.27;6.72;;;;;;;;;;5026104;28;20421;-77
2023/02/14 01:13:09;;;;;;;10.30;6.53;;;;;;;;;;5022915;28;20101;-77
2023/02/14 01:15:40;;;;;;;10.95;6.22;;;;;;;;;;5029077;28;20036;-77
2023/02/14 01:18:05;;;;;;;11.98;7.07;;;;;;;;;;5029448;28;20095;-77
2023/02/14 01:20:31;;;;;;;10.55;6.22;;;;;;;;;;5028547;28;20033;-77
2023/02/14 01:22:57;;;;;;;11.18;7.05;;;;;;;;;;5031876;28;20025;-77
2023/02/14 01:25:22;;;;;;;10.52;6.47;;;;;;;;;;5032045;28;20025;-77
2023/02/14 01:27:48;;;;;;;11.20;6.68;;;;;;;;;;5028841;28;20105;-77
2023/02/14 01:30:13;;;;;;;11.65;6.50;;;;;;;;;;5032201;28;20025;-77
2023/02/14 01:32:39;;;;;;;11.68;6.78;;;;;;;;;;5027134;28;20052;-77
2023/02/14 01:35:04;;;;;;;11.20;6.32;;;;;;;;;;5029008;28;20032;-77
2023/02/14 01:37:30;;;;;;;11.38;6.65;;;;;;;;;;5030184;28;20033;-77
2023/02/14 01:39:55;;;;;;;13.77;7.25;;;;;;;;;;5029510;28;20132;-77
2023/02/14 01:42:21;;;;;;;9.77;6.10;;;;;;;;;;5021481;28;20022;-77
2023/02/14 01:44:46;;;;;;;13.20;8.02;;;;;;;;;;5041025;28;20176;-77
2023/02/14 01:47:13;;;;;;;12.93;7.40;;;;;;;;;;5028386;28;20036;-77
2023/02/14 01:49:45;;;;;;;9.82;6.47;;;;;;;;;;5031933;28;20469;-77
2023/02/14 01:52:14;;;;;;;13.15;7.55;;;;;;;;;;5034390;28;20021;-77
2023/02/14 01:54:48;;;;;;;13.20;7.60;;;;;;;;;;5023615;28;20123;-77
2023/02/14 01:57:18;;;;;;;13.32;7.60;;;;;;;;;;5023067;28;20049;-77
2023/02/14 01:59:51;;;;;;;12.25;7.72;;;;;;;;;;5028611;28;20622;-77
2023/02/14 02:02:22;;;;;;;14.55;7.95;;;;;;;;;;5025153;28;20136;-77
2023/02/14 02:04:50;;;;;;;11.82;7.55;;;;;;;;;;5022949;28;20378;-77
2023/02/14 02:07:23;;;;;;;13.15;7.75;;;;;;;;;;5026279;28;20021;-77
2023/02/14 02:10:00;;;;;;;14.02;7.22;;;;;;;;;;5024704;28;20087;-77
2023/02/14 02:12:26;;;;;;;12.02;7.20;;;;;;;;;;5025182;28;20544;-77
2023/02/14 02:14:54;;;;;;;17.00;7.93;;;;;;;;;;5026235;28;20114;-77
2023/02/14 02:17:51;;;;;;;12.13;7.55;;;;;;;;;;5027376;28;20037;-77
2023/02/14 02:21:14;;;;;;;14.35;8.13;;;;;;;;;;5025494;28;20033;-77
2023/02/14 02:23:55;;;;;;;13.80;7.88;;;;;;;;;;5023795;28;20025;-77
2023/02/14 02:27:05;;;;;;;13.30;7.25;;;;;;;;;;5042882;28;20072;-77
2023/02/14 02:29:49;;;;;;;12.23;7.50;;;;;;;;;;5042482;28;20037;-77
2023/02/14 02:32:36;;;;;;;14.80;8.32;;;;;;;;;;5026280;28;20050;-77
2023/02/14 02:35:25;;;;;;;14.60;8.25;;;;;;;;;;5023815;28;20104;-77
2023/02/14 02:38:12;;;;;;;13.43;7.80;;;;;;;;;;5024990;28;20025;-77
2023/02/14 02:40:43;;;;;;;13.02;8.13;;;;;;;;;;5029446;28;20068;-77
2023/02/14 02:43:37;;;;;;;13.30;8.10;;;;;;;;;;5024023;28;20033;-77
2023/02/14 02:53:01;;;;;;;11.80;7.13;;;;;;;;;;5023958;28;20076;-77
2023/02/14 02:55:03;;;;;;;12.63;7.85;;;;;;;;;;5028600;28;20184;-77
2023/02/14 02:57:36;;;;;;;13.55;8.15;;;;;;;;;;5025619;28;20061;-77
2023/02/14 03:00:03;;;;;;;14.73;8.27;;;;;;;;;;5020627;28;20398;-77
2023/02/14 03:04:46;;;;;;;15.30;8.38;;;;;;;;;;5034907;28;20048;-77
2023/02/14 03:05:19;;;;;;;12.75;7.88;;;;;;;;;;5025108;28;20105;-77
2023/02/14 03:07:47;;;;;;;12.57;7.50;;;;;;;;;;5026992;28;20116;-77
2023/02/14 03:10:22;;;;;;;13.23;7.65;;;;;;;;;;5024736;28;20072;-76
2023/02/14 03:12:55;;;;;;;11.43;7.05;;;;;;;;;;5026865;28;20069;-77
2023/02/14 03:15:45;;;;;;;14.18;7.78;;;;;;;;;;5022859;28;20436;-77
2023/02/14 03:19:18;;;;;;;12.85;7.45;;;;;;;;;;5018269;28;20029;-77
2023/02/14 03:21:50;;;;;;;12.13;7.47;;;;;;;;;;4921398;28;20114;-77
2023/02/14 03:24:46;;;;;;;12.73;7.75;;;;;;;;;;4986296;28;20032;-77
2023/02/14 03:27:21;;;;;;;13.95;8.10;;;;;;;;;;5025089;28;20044;-77
2023/02/14 03:30:08;;;;;;;14.27;8.70;;;;;;;;;;5029147;28;20055;-77
2023/02/14 03:32:39;;;;;;;15.75;8.57;;;;;;;;;;5035401;28;20037;-77
2023/02/14 03:35:10;;;;;;;17.00;9.02;;;;;;;;;;5033609;28;20099;-77
2023/02/14 03:37:42;;;;;;;16.63;9.05;;;;;;;;;;5033190;28;20381;-77
2023/02/14 03:40:21;;;;;;;16.40;9.20;;;;;;;;;;5032500;28;20096;-77
2023/02/14 03:43:13;;;;;;;15.38;9.25;;;;;;;;;;5030705;28;20038;-77
2023/02/14 03:45:47;;;;;;;17.23;9.18;;;;;;;;;;5032556;28;20596;-77
2023/02/14 03:48:15;;;;;;;17.45;9.60;;;;;;;;;;5030569;28;20032;-77
2023/02/14 03:50:45;;;;;;;18.48;9.52;;;;;;;;;;5029584;28;20028;-76
2023/02/14 03:53:13;;;;;;;16.00;9.98;;;;;;;;;;5027195;28;20092;-76
2023/02/14 03:56:11;;;;;;;18.70;9.82;;;;;;;;;;5023186;28;20033;-77
2023/02/14 03:58:43;;;;;;;15.80;8.93;;;;;;;;;;5027750;28;20104;-77
2023/02/14 04:01:23;;;;;;;15.20;9.18;;;;;;;;;;5025479;28;20025;-77
2023/02/14 04:03:50;;;;;;;15.20;9.05;;;;;;;;;;5031689;28;20071;-77
2023/02/14 04:06:17;;;;;;;17.42;9.60;;;;;;;;;;5026809;28;20021;-77
2023/02/14 04:08:42;;;;;;;15.50;9.73;;;;;;;;;;5029483;28;20029;-77
2023/02/14 04:11:08;;;;;;;17.67;10.25;;;;;;;;;;5024926;28;20386;-77
2023/02/14 04:13:35;;;;;;;16.90;9.10;;;;;;;;;;5033632;28;20111;-76
2023/02/14 04:16:01;;;;;;;16.85;9.93;;;;;;;;;;5024221;28;20080;-76
2023/02/14 04:21:10;;;;;;;14.77;9.57;;;;;;;;;;5017558;28;20045;-77
2023/02/14 04:23:36;;;;;;;16.67;10.70;;;;;;;;;;5029874;28;20922;-77
2023/02/14 04:26:02;;;;;;;18.08;10.38;;;;;;;;;;5025314;28;20025;-77
2023/02/14 04:28:28;;;;;;;19.20;10.13;;;;;;;;;;5021008;28;20470;-77
2023/02/14 04:30:54;;;;;;;16.83;9.65;;;;;;;;;;5028625;28;20030;-77
2023/02/14 04:33:19;;;;;;;17.05;10.30;;;;;;;;;;5033846;28;20543;-77
2023/02/14 04:35:44;;;;;;;15.38;9.38;;;;;;;;;;5027396;28;20469;-77
2023/02/14 04:38:10;;;;;;;16.02;9.27;;;;;;;;;;5032366;28;20032;-77
2023/02/14 04:40:35;;;;;;;16.92;10.15;;;;;;;;;;5026704;28;20060;-77
2023/02/14 04:43:01;;;;;;;17.98;10.32;;;;;;;;;;5033261;28;20010;-77
2023/02/14 04:45:26;;;;;;;19.77;10.38;;;;;;;;;;5033005;28;20386;-77
2023/02/14 04:47:52;;;;;;;18.42;9.75;;;;;;;;;;5025163;28;20053;-76
2023/02/14 04:50:17;;;;;;;17.30;10.07;;;;;;;;;;5025392;28;20029;-77
2023/02/14 04:52:43;;;;;;;16.52;10.15;;;;;;;;;;5029341;28;20052;-77
2023/02/14 04:55:09;;;;;;;16.63;9.55;;;;;;;;;;5028745;28;20057;-77
2023/02/14 04:57:34;;;;;;;17.25;9.45;;;;;;;;;;5024057;28;20064;-77
2023/02/14 05:00:00;;;;;;;16.48;9.30;;;;;;;;;;5028941;28;20033;-77
2023/02/14 05:02:25;;;;;;;19.63;9.95;;;;;;;;;;5024791;28;20029;-77
2023/02/14 05:04:51;;;;;;;17.50;10.10;;;;;;;;;;5026486;28;20062;-77
2023/02/14 05:07:16;;;;;;;17.55;9.57;;;;;;;;;;5028024;28;20091;-77
2023/02/14 05:09:41;;;;;;;15.43;9.02;;;;;;;;;;5023793;28;20396;-77
2023/02/14 05:12:07;;;;;;;16.50;9.27;;;;;;;;;;5026135;28;20096;-77
2023/02/14 05:14:32;;;;;;;17.27;9.43;;;;;;;;;;5024730;28;20032;-76
2023/02/14 05:16:58;;;;;;;18.65;10.55;;;;;;;;;;5027248;28;20440;-77
2023/02/14 05:19:23;;;;;;;17.15;9.98;;;;;;;;;;5025262;28;20033;-77
2023/02/14 05:21:49;;;;;;;17.42;9.90;;;;;;;;;;5020199;28;20021;-77
2023/02/14 05:24:15;;;;;;;16.23;9.95;;;;;;;;;;5021165;28;20131;-77
2023/02/14 05:26:40;;;;;;;17.30;9.20;;;;;;;;;;5023480;28;20037;-77
2023/02/14 05:29:06;;;;;;;17.63;10.32;;;;;;;;;;5029159;28;20032;-77
2023/02/14 05:31:31;;;;;;;19.13;10.15;;;;;;;;;;5028147;28;20029;-76
2023/02/14 05:33:56;;;;;;;19.35;10.95;;;;;;;;;;5026369;28;20509;-77
2023/02/14 05:36:22;;;;;;;16.75;9.75;;;;;;;;;;5027689;28;20025;-77
2023/02/14 05:38:47;;;;;;;18.67;9.52;;;;;;;;;;5027701;28;20033;-77
2023/02/14 05:41:13;;;;;;;17.13;10.52;;;;;;;;;;5017901;28;20029;-77
2023/02/14 05:43:38;;;;;;;17.40;10.27;;;;;;;;;;5022286;28;20101;-77
2023/02/14 05:46:04;;;;;;;15.93;10.00;;;;;;;;;;5024309;28;20029;-77
2023/02/14 05:48:29;;;;;;;18.58;10.20;;;;;;;;;;5027537;28;20025;-77
2023/02/14 05:50:55;;;;;;;15.43;9.55;;;;;;;;;;5013037;28;20064;-77
2023/02/14 05:53:20;;;;;;;17.70;10.45;;;;;;;;;;5022698;28;20037;-77
2023/02/14 05:55:46;;;;;;;17.95;9.90;;;;;;;;;;5028145;28;20116;-77
2023/02/14 05:58:11;;;;;;;17.42;10.00;;;;;;;;;;5020840;28;20087;-77
2023/02/14 06:00:38;;;;;;;21.25;10.50;;;;;;;;;;5018581;28;20033;-77
2023/02/14 06:03:03;;;;;;;17.45;10.90;;;;;;;;;;5039040;28;20026;-77
2023/02/14 06:05:29;;;;;;;17.73;10.07;;;;;;;;;;5025235;28;20039;-77
2023/02/14 06:07:54;;;;;;;17.65;9.95;;;;;;;;;;5029534;28;20112;-77
2023/02/14 06:10:22;;;;;;;19.20;10.35;;;;;;;;;;5027311;28;20384;-77
2023/02/14 06:12:49;;;;;;;18.92;9.65;;;;;;;;;;5022497;28;20466;-77
2023/02/14 06:15:15;;;;;;;16.40;9.98;;;;;;;;;;5030454;28;20071;-77
2023/02/14 06:17:40;;;;;;;17.63;9.98;;;;;;;;;;5028537;28;20053;-77
2023/02/14 06:20:09;;;;;;;15.93;9.95;;;;;;;;;;5027400;28;20025;-77
2023/02/14 06:22:35;;;;;;;16.75;10.25;;;;;;;;;;5025404;28;20039;-77
2023/02/14 06:25:01;;;;;;;17.77;10.27;;;;;;;;;;5021786;28;20033;-77
2023/02/14 06:27:28;;;;;;;18.70;10.68;;;;;;;;;;5021005;28;20040;-77
2023/02/14 06:29:54;;;;;;;17.17;10.05;;;;;;;;;;5017192;28;20060;-77
2023/02/14 06:32:19;;;;;;;16.23;10.07;;;;;;;;;;5024056;28;20059;-77
2023/02/14 06:34:45;;;;;;;16.33;9.55;;;;;;;;;;5024577;28;20028;-77
2023/02/14 06:37:10;;;;;;;15.90;9.95;;;;;;;;;;5029833;28;20090;-77
2023/02/14 06:39:35;;;;;;;18.10;10.45;;;;;;;;;;5031419;28;20025;-77
2023/02/14 06:42:01;;;;;;;16.40;9.98;;;;;;;;;;5023793;28;20104;-77
2023/02/14 06:44:26;;;;;;;17.08;9.80;;;;;;;;;;5028978;28;20024;-77
2023/02/14 06:46:52;;;;;;;14.70;9.45;;;;;;;;;;5030141;28;20095;-77
2023/02/14 06:49:17;;;;;;;18.95;10.00;;;;;;;;;;5032409;28;20475;-77
2023/02/14 06:51:42;;;;;;;16.85;9.82;;;;;;;;;;5028349;28;20060;-77
2023/02/14 06:54:08;;;;;;;16.35;10.15;;;;;;;;;;5030536;28;20021;-77
2023/02/14 06:56:33;;;;;;;17.15;8.98;;;;;;;;;;5032641;28;20416;-77
2023/02/14 06:58:58;;;;;;;17.88;9.88;;;;;;;;;;5027066;28;20120;-77
2023/02/14 07:01:24;;;;;;;16.95;9.73;;;;;;;;;;5020866;28;20569;-77
2023/02/14 07:03:49;;;;;;;17.70;10.10;;;;;;;;;;5023845;28;20025;-77
2023/02/14 07:06:14;;;;;;;17.02;9.68;;;;;;;;;;5037476;28;20121;-77
2023/02/14 07:08:41;;;;;;;15.20;9.30;;;;;;;;;;5025206;28;20086;-77
2023/02/14 07:11:07;;;;;;;16.63;9.35;;;;;;;;;;5029819;28;20051;-77
2023/02/14 07:13:32;;;;;;;17.10;9.82;;;;;;;;;;5032454;28;20080;-77
2023/02/14 07:15:57;;;;;;;16.02;9.65;;;;;;;;;;5037446;28;20116;-77
2023/02/14 07:18:23;;;;;;;15.63;9.75;;;;;;;;;;5029209;28;20028;-77
2023/02/14 07:20:49;;;;;;;15.30;9.43;;;;;;;;;;5033472;28;20029;-77
2023/02/14 07:23:15;;;;;;;20.15;10.00;;;;;;;;;;5029514;28;20076;-77
2023/02/14 07:25:40;;;;;;;14.40;9.60;;;;;;;;;;5031045;28;20402;-77
2023/02/14 07:28:06;;;;;;;16.67;9.55;;;;;;;;;;5035692;28;20036;-77
2023/02/14 07:30:31;;;;;;;16.27;9.48;;;;;;;;;;5029027;28;20029;-77
2023/02/14 07:32:57;;;;;;;17.55;10.25;;;;;;;;;;5029703;28;20021;-77
2023/02/14 07:35:22;;;;;;;18.70;10.43;;;;;;;;;;5030372;28;20787;-77
2023/02/14 07:37:51;;;;;;;16.70;10.50;;;;;;;;;;5039422;28;20171;-77
2023/02/14 07:40:17;;;;;;;16.10;10.10;;;;;;;;;;5035667;28;20055;-77
2023/02/14 07:42:42;;;;;;;17.58;9.68;;;;;;;;;;5034068;28;20473;-77
2023/02/14 07:45:09;;;;;;;15.50;9.48;;;;;;;;;;5035841;28;20504;-77
2023/02/14 07:47:34;;;;;;;15.02;9.20;;;;;;;;;;5035898;28;20041;-77
2023/02/14 07:49:59;;;;;;;17.15;10.13;;;;;;;;;;5031190;28;20033;-77
2023/02/14 07:52:25;;;;;;;17.00;10.38;;;;;;;;;;5030354;28;20532;-77
2023/02/14 07:54:50;;;;;;;17.13;10.02;;;;;;;;;;5033848;28;20021;-77
2023/02/14 07:57:16;;;;;;;17.23;11.07;;;;;;;;;;5030242;28;20030;-77
2023/02/14 07:59:41;;;;;;;18.70;10.85;;;;;;;;;;5033779;28;20489;-77
2023/02/14 08:02:11;;;;;;;19.40;11.43;;;;;;;;;;5028332;28;20124;-77
2023/02/14 08:04:36;;;;;;;19.38;11.45;;;;;;;;;;5028284;28;20398;-77
2023/02/14 08:07:01;;;;;;;19.52;10.73;;;;;;;;;;5035519;28;20021;-76
2023/02/14 08:09:27;;;;;;;16.83;10.38;;;;;;;;;;5032828;28;20436;-76
2023/02/14 08:14:38;;;;;;;17.67;10.73;;;;;;;;;;5036029;28;20149;-77
2023/02/14 08:17:06;;;;;;;18.38;11.05;;;;;;;;;;5030480;28;20033;-76
2023/02/14 08:19:31;;;;;;;19.60;11.45;;;;;;;;;;5025468;28;20036;-76
2023/02/14 08:21:57;;;;;;;19.42;11.10;;;;;;;;;;5033134;28;20021;-76
2023/02/14 08:24:22;;;;;;;19.25;11.63;;;;;;;;;;5034318;28;20033;-76
2023/02/14 08:26:47;;;;;;;19.20;11.30;;;;;;;;;;5033746;28;20028;-76
2023/02/14 08:29:13;;;;;;;19.00;11.23;;;;;;;;;;5031864;28;20025;-76
2023/02/14 08:31:38;;;;;;;18.55;10.98;;;;;;;;;;5033108;28;20116;-76
2023/02/14 08:34:04;;;;;;;18.05;10.98;;;;;;;;;;5026728;28;20037;-76
2023/02/14 08:36:30;;;;;;;20.55;11.45;;;;;;;;;;5028731;28;20033;-76
2023/02/14 08:38:56;;;;;;;16.85;10.35;;;;;;;;;;5038398;28;20504;-77
2023/02/14 08:41:22;;;;;;;17.02;10.90;;;;;;;;;;5031378;28;20019;-77
2023/02/14 08:43:48;;;;;;;18.90;12.15;;;;;;;;;;5034277;28;20997;-77
2023/02/14 08:46:15;;;;;;;21.33;11.75;;;;;;;;;;5030557;28;20029;-77
2023/02/14 08:48:42;;;;;;;19.83;12.57;;;;;;;;;;5034453;28;20071;-77
2023/02/14 08:51:09;;;;;;;19.45;12.15;;;;;;;;;;5035161;28;20475;-77
2023/02/14 08:53:35;;;;;;;19.63;11.60;;;;;;;;;;5033804;28;20445;-77
2023/02/14 08:56:06;;;;;;;20.88;12.25;;;;;;;;;;5034107;28;20033;-77
2023/02/14 08:58:32;;;;;;;20.02;12.45;;;;;;;;;;5034449;28;20042;-77
2023/02/14 09:00:57;;;;;;;21.48;13.10;;;;;;;;;;5031430;28;20103;-77
2023/02/14 09:03:23;;;;;;;19.45;12.70;;;;;;;;;;5037448;28;20056;-77
2023/02/14 09:05:48;;;;;;;23.17;13.15;;;;;;;;;;5035352;28;20033;-77
2023/02/14 09:08:13;;;;;;;20.73;13.35;;;;;;;;;;5028961;28;20104;-78
2023/02/14 09:10:39;;;;;;;25.10;13.95;;;;;;;;;;5035603;28;20033;-77
2023/02/14 09:13:04;;;;;;;20.58;13.00;;;;;;;;;;5025783;28;20478;-77
2023/02/14 09:15:30;;;;;;;20.73;12.43;;;;;;;;;;5033924;28;20139;-77
2023/02/14 09:17:55;;;;;;;20.48;12.25;;;;;;;;;;5030248;28;20029;-77
2023/02/14 09:20:21;;;;;;;21.15;12.20;;;;;;;;;;5032922;28;20381;-77
2023/02/14 09:22:46;;;;;;;21.02;13.55;;;;;;;;;;5028194;28;20030;-78
2023/02/14 09:25:12;;;;;;;22.20;13.30;;;;;;;;;;5029992;28;20161;-78
2023/02/14 09:27:38;;;;;;;22.27;13.60;;;;;;;;;;5034238;28;20056;-78
2023/02/14 09:30:05;;;;;;;20.70;13.00;;;;;;;;;;5034373;28;20155;-77
2023/02/14 09:32:31;;;;;;;20.48;13.32;;;;;;;;;;5029284;28;20030;-78
2023/02/14 09:34:56;;;;;;;21.77;13.40;;;;;;;;;;5025210;28;20036;-77
2023/02/14 09:37:22;;;;;;;20.98;13.35;;;;;;;;;;5028587;28;20117;-77
2023/02/14 09:39:47;;;;;;;23.90;13.63;;;;;;;;;;5034188;28;20040;-78
2023/02/14 09:42:22;;;;;;;21.80;13.23;;;;;;;;;;5040140;28;20034;-78
2023/02/14 09:44:50;;;;;;;22.95;13.90;;;;;;;;;;5032375;28;20025;-77
2023/02/14 09:47:38;;;;;;;21.52;13.52;;;;;;;;;;5030124;28;20025;-78
2023/02/14 09:50:10;;;;;;;17.15;11.40;;;;;;;;;;5029168;28;20044;-78
2023/02/14 09:52:35;;;;;;;21.10;12.48;;;;;;;;;;5033551;28;20081;-78
2023/02/14 09:55:02;;;;;;;18.52;11.88;;;;;;;;;;5033122;28;20060;-78
2023/02/14 09:57:42;;;;;;;17.55;11.40;;;;;;;;;;5027809;28;20021;-78
2023/02/14 10:00:27;;;;;;;19.98;13.07;;;;;;;;;;5031070;28;20030;-78
2023/02/14 10:02:57;;;;;;;21.20;12.63;;;;;;;;;;5032417;28;20534;-78
2023/02/14 10:05:28;;;;;;;19.85;12.23;;;;;;;;;;5028817;28;20025;-78
2023/02/14 10:08:21;;;;;;;21.50;12.90;;;;;;;;;;5036757;28;20036;-78
2023/02/14 10:10:58;;;;;;;19.55;12.18;;;;;;;;;;5033038;28;20444;-78
2023/02/14 10:13:36;;;;;;;21.50;12.73;;;;;;;;;;5033401;28;20029;-78
2023/02/14 10:16:21;;;;;;;19.15;12.90;;;;;;;;;;5035596;28;20133;-78
2023/02/14 10:19:16;;;;;;;17.05;11.43;;;;;;;;;;5038681;28;20068;-78
2023/02/14 10:21:47;;;;;;;20.20;12.68;;;;;;;;;;5023888;28;20022;-79
2023/02/14 10:24:34;;;;;;;17.48;11.38;;;;;;;;;;5025665;28;20025;-78
2023/02/14 10:27:31;;;;;;;15.88;10.65;;;;;;;;;;5031739;28;20061;-78
2023/02/14 10:29:57;;;;;;;18.92;12.25;;;;;;;;;;5020383;28;20506;-78
2023/02/14 10:32:45;;;;;;;19.10;12.13;;;;;;;;;;5031710;28;20033;-79
2023/02/14 10:35:27;;;;;;;20.27;12.75;;;;;;;;;;5033454;28;20024;-78
2023/02/14 10:38:16;;;;;;;19.15;12.15;;;;;;;;;;5029863;28;20440;-79
2023/02/14 10:41:07;;;;;;;19.20;12.63;;;;;;;;;;5024931;28;20458;-78
2023/02/14 10:43:48;;;;;;;19.77;12.48;;;;;;;;;;5027436;28;20477;-78
2023/02/14 10:46:28;;;;;;;18.25;11.30;;;;;;;;;;5032143;28;20022;-78
2023/02/14 10:49:23;;;;;;;20.88;12.65;;;;;;;;;;5030297;28;20033;-78
2023/02/14 10:51:59;;;;;;;19.38;11.75;;;;;;;;;;5032030;28;20061;-78
2023/02/14 10:54:31;;;;;;;17.77;11.38;;;;;;;;;;5030962;28;20034;-78
2023/02/14 10:57:15;;;;;;;17.92;11.57;;;;;;;;;;5033994;28;20025;-78
2023/02/14 10:59:53;;;;;;;21.02;13.80;;;;;;;;;;5022054;28;20058;-78
2023/02/14 11:02:23;;;;;;;20.48;12.57;;;;;;;;;;5028263;28;20022;-78
2023/02/14 11:04:49;;;;;;;20.75;13.02;;;;;;;;;;5031105;28;20049;-79
2023/02/14 11:07:17;;;;;;;18.45;12.50;;;;;;;;;;5034526;28;20029;-78
2023/02/14 11:09:43;;;;;;;18.35;11.57;;;;;;;;;;5025045;28;20026;-78
2023/02/14 11:12:08;;;;;;;19.15;11.13;;;;;;;;;;5029921;28;20112;-78
2023/02/14 11:14:37;;;;;;;18.95;11.30;;;;;;;;;;5027326;28;20060;-78
2023/02/14 11:17:28;;;;;;;18.25;12.32;;;;;;;;;;5031044;28;20684;-79
2023/02/14 11:20:05;;;;;;;20.23;12.50;;;;;;;;;;5030551;28;20021;-78
2023/02/14 11:22:32;;;;;;;17.80;11.73;;;;;;;;;;5020063;28;20018;-79
2023/02/14 11:25:16;;;;;;;18.20;12.05;;;;;;;;;;5029589;28;20025;-79
2023/02/14 11:27:48;;;;;;;19.35;12.15;;;;;;;;;;5024961;28;20425;-79
2023/02/14 11:30:45;;;;;;;16.90;10.27;;;;;;;;;;5025283;28;20068;-79
2023/02/14 11:33:31;;;;;;;20.17;13.13;;;;;;;;;;5029817;28;20084;-79
2023/02/14 11:35:57;;;;;;;14.88;10.60;;;;;;;;;;5025616;28;20025;-79
2023/02/14 11:38:37;;;;;;;16.50;10.27;;;;;;;;;;5026804;28;20059;-79
2023/02/14 11:41:05;;;;;;;20.13;12.85;;;;;;;;;;5031545;28;20075;-79
2023/02/14 11:43:43;;;;;;;20.27;13.15;;;;;;;;;;5032622;28;20520;-79
2023/02/14 11:46:14;;;;;;;19.02;12.30;;;;;;;;;;5019866;28;20359;-79
2023/02/14 11:48:55;;;;;;;17.33;12.00;;;;;;;;;;5029569;28;20051;-79
2023/02/14 11:51:27;;;;;;;18.73;11.48;;;;;;;;;;5030451;28;20402;-79
2023/02/14 11:53:55;;;;;;;17.73;11.25;;;;;;;;;;5022947;28;20048;-79
2023/02/14 11:56:22;;;;;;;19.50;12.13;;;;;;;;;;5031440;28;20041;-79
2023/02/14 11:58:55;;;;;;;21.27;12.27;;;;;;;;;;5034253;28;20021;-79
2023/02/14 12:01:31;;;;;;;;;;;;;;;;;;5030142;28;20028;-79
2023/02/14 12:04:00;;;;;;;19.05;11.07;;;;;;;;;;5034018;28;19912;-79
2023/02/14 12:06:29;;;;;;;18.55;11.63;;;;;;;;;;5032511;28;20523;-79
2023/02/14 12:09:30;;;;;;;16.98;10.52;;;;;;;;;;5034236;28;20036;-79
2023/02/14 12:11:58;;;;;;;21.00;12.02;;;;;;;;;;5028599;28;20028;-79
2023/02/14 12:14:28;;;;;;;19.77;12.00;;;;;;;;;;5029484;28;20034;-79
2023/02/14 12:17:01;;;;;;;18.70;12.20;;;;;;;;;;5036500;28;20035;-79
2023/02/14 12:19:40;;;;;;;21.02;12.55;;;;;;;;;;5026593;28;20075;-79
2023/02/14 12:22:06;;;;;;;21.02;12.43;;;;;;;;;;5027279;28;20029;-78
2023/02/14 12:24:40;;;;;;;20.05;11.95;;;;;;;;;;5028357;28;20033;-79
2023/02/14 12:27:31;;;;;;;20.25;12.43;;;;;;;;;;5027906;28;20152;-79
2023/02/14 12:30:12;;;;;;;15.20;9.95;;;;;;;;;;5032161;28;20473;-79
2023/02/14 12:32:48;;;;;;;20.00;11.80;;;;;;;;;;5030905;28;20021;-79
2023/02/14 12:35:36;;;;;;;16.25;10.25;;;;;;;;;;5028768;28;20025;-79
2023/02/14 12:38:19;;;;;;;20.67;12.32;;;;;;;;;;5026736;28;20053;-79
2023/02/14 12:41:22;;;;;;;17.95;12.43;;;;;;;;;;5030282;28;20505;-79
2023/02/14 12:43:56;;;;;;;19.88;12.80;;;;;;;;;;5023798;28;20057;-79
2023/02/14 12:46:32;;;;;;;19.65;12.75;;;;;;;;;;5032275;28;20121;-79
2023/02/14 12:49:16;;;;;;;20.55;13.88;;;;;;;;;;5031058;28;20056;-79
2023/02/14 12:52:08;;;;;;;19.92;12.10;;;;;;;;;;5028413;28;20384;-79
2023/02/14 12:54:56;;;;;;;18.25;12.05;;;;;;;;;;5025251;28;20029;-79
2023/02/14 12:58:01;;;;;;;20.25;12.52;;;;;;;;;;5028469;28;20032;-78
2023/02/14 13:00:53;;;;;;;19.65;12.65;;;;;;;;;;5029948;28;20454;-79
2023/02/14 13:03:49;;;;;;;18.05;12.48;;;;;;;;;;5034339;28;20024;-79
2023/02/14 13:06:30;;;;;;;20.00;13.00;;;;;;;;;;5029004;28;20033;-79
2023/02/14 13:09:26;;;;;;;19.33;12.90;;;;;;;;;;5029766;28;20252;-79
2023/02/14 13:12:40;;;;;;;19.08;11.02;;;;;;;;;;5031870;28;20473;-79
2023/02/14 13:15:13;;;;;;;18.35;11.90;;;;;;;;;;5026883;28;20712;-79
2023/02/14 13:17:54;;;;;;;26.90;12.80;;;;;;;;;;5030509;28;20037;-79
2023/02/14 13:20:29;;;;;;;22.60;12.70;;;;;;;;;;5033654;28;20465;-78
2023/02/14 13:22:59;;;;;;;19.02;13.07;;;;;;;;;;5031776;28;20825;-78
2023/02/14 13:25:32;;;;;;;18.88;12.40;;;;;;;;;;5034906;28;20025;-78
2023/02/14 13:28:04;;;;;;;18.23;10.88;;;;;;;;;;5033231;28;20040;-78
2023/02/14 13:30:35;;;;;;;19.73;13.07;;;;;;;;;;5032708;28;20044;-78
2023/02/14 13:33:06;;;;;;;20.02;13.45;;;;;;;;;;5032163;28;20087;-78
2023/02/14 13:35:33;;;;;;;20.55;12.35;;;;;;;;;;5028899;28;20078;-78
2023/02/14 13:38:07;;;;;;;20.98;12.32;;;;;;;;;;5025133;28;20549;-78
2023/02/14 13:40:34;;;;;;;19.27;11.60;;;;;;;;;;5026800;28;20171;-78
2023/02/14 13:43:00;;;;;;;19.33;12.68;;;;;;;;;;5028823;28;20071;-78
2023/02/14 13:45:29;;;;;;;19.30;12.20;;;;;;;;;;5033780;28;20529;-78
2023/02/14 13:48:04;;;;;;;19.65;11.93;;;;;;;;;;5032378;28;20025;-78
2023/02/14 13:50:33;;;;;;;20.60;12.48;;;;;;;;;;5028905;28;20098;-78
2023/02/14 13:52:59;;;;;;;18.30;11.75;;;;;;;;;;5008603;28;20104;-78
2023/02/14 13:55:30;;;;;;;20.30;13.07;;;;;;;;;;5025485;28;20167;-77
2023/02/14 13:58:05;;;;;;;17.88;11.73;;;;;;;;;;5034169;28;20473;-78
2023/02/14 14:00:40;;;;;;;20.83;12.18;;;;;;;;;;5030207;28;20032;-78
2023/02/14 14:03:12;;;;;;;20.25;12.45;;;;;;;;;;5027627;28;20137;-77
2023/02/14 14:05:46;;;;;;;19.27;12.40;;;;;;;;;;5025066;28;20025;-78
2023/02/14 14:08:25;;;;;;;20.23;12.70;;;;;;;;;;5025683;28;20048;-77
2023/02/14 14:10:56;;;;;;;22.67;12.85;;;;;;;;;;5034111;28;20032;-77
2023/02/14 14:13:41;;;;;;;20.08;12.80;;;;;;;;;;5031741;28;20470;-78
2023/02/14 14:16:22;;;;;;;20.25;12.80;;;;;;;;;;5032057;28;20391;-78
2023/02/14 14:19:23;;;;;;;19.67;11.98;;;;;;;;;;5033127;28;20032;-78
2023/02/14 14:22:03;;;;;;;20.33;12.48;;;;;;;;;;5026779;28;20037;-78
2023/02/14 14:24:34;;;;;;;22.90;12.52;;;;;;;;;;5034191;28;20124;-77
2023/02/14 14:27:03;;;;;;;22.52;13.68;;;;;;;;;;5029690;28;20025;-78
2023/02/14 14:29:43;;;;;;;21.73;12.48;;;;;;;;;;5030615;28;20473;-77
2023/02/14 14:32:11;;;;;;;23.67;12.68;;;;;;;;;;5025018;28;20037;-78
2023/02/14 14:34:51;;;;;;;21.13;13.77;;;;;;;;;;5026416;28;20062;-78
2023/02/14 14:37:20;;;;;;;19.55;12.95;;;;;;;;;;5034708;28;20021;-78
2023/02/14 14:39:55;;;;;;;21.55;13.52;;;;;;;;;;5029532;28;20033;-78
2023/02/14 14:42:23;;;;;;;20.52;12.98;;;;;;;;;;5025111;28;20026;-77
2023/02/14 14:44:51;;;;;;;21.77;13.13;;;;;;;;;;5028925;28;20022;-78
2023/02/14 14:47:23;;;;;;;23.98;13.98;;;;;;;;;;5028892;28;20028;-78
2023/02/14 14:49:50;;;;;;;20.83;13.05;;;;;;;;;;5027137;28;20036;-78
2023/02/14 14:52:38;;;;;;;23.50;14.32;;;;;;;;;;5026318;28;20045;-78
2023/02/14 14:55:06;;;;;;;21.73;13.52;;;;;;;;;;5029965;28;20509;-78
2023/02/14 14:57:35;;;;;;;21.85;13.25;;;;;;;;;;5019011;28;20026;-78
2023/02/14 15:00:08;;;;;;;20.45;12.65;;;;;;;;;;5021981;28;20474;-78
2023/02/14 15:02:33;;;;;;;22.55;13.65;;;;;;;;;;5025762;28;20033;-78
2023/02/14 15:05:16;;;;;;;19.45;12.88;;;;;;;;;;5029391;28;20025;-78